Terminal Aerodrome Forecast
Issued by NWS Sterling, VA

Current Version | Previous Version | Graphics & Text | Print | Product List | Glossary On
Versions: 1 2 3 4 5 6 7 8 9 10 11 12 13 14 15 16 17 18 19 20 21
000
FTUS41 KLWX 281120
TAFDCA
TAF
KDCA 281120Z 2812/2912 04008KT P6SM -RA FEW008 SCT028 BKN090
     FM281400 09007KT P6SM BKN015
     FM281800 11008KT 3SM SHRA BR VCTS BKN015CB
     FM290300 11008KT 3SM SHRA BR OVC008=

USA.gov is the U.S. government's official web portal to all federal, state and local government web resources and services.